createdAt,value
2018-06-07T00:09:10.491Z,46.9
2018-06-07T00:19:09.721Z,46.9
2018-06-07T00:29:08.942Z,46.9
2018-06-07T00:39:08.166Z,46.8
2018-06-07T00:49:07.400Z,46.7
2018-06-07T00:59:06.643Z,46.7
2018-06-07T01:09:05.867Z,46.6
2018-06-07T01:19:05.090Z,46.6
2018-06-07T01:29:04.320Z,46.5
2018-06-07T01:39:03.544Z,46.4
2018-06-07T01:49:02.788Z,46.4
2018-06-07T01:59:02.004Z,46.3
2018-06-07T02:09:01.289Z,46.3
2018-06-07T02:19:00.466Z,46.3
2018-06-07T02:28:59.690Z,46.2
2018-06-07T02:38:58.919Z,46.1
2018-06-07T02:48:58.154Z,43.2
2018-06-07T02:58:57.429Z,40.3
2018-06-07T03:08:56.610Z,38.2
2018-06-07T03:18:55.834Z,38.2
2018-06-07T03:28:55.062Z,38.2
2018-06-07T03:38:54.344Z,38.3
2018-06-07T03:48:53.526Z,36.8
2018-06-07T03:58:52.755Z,36.4
2018-06-07T04:08:51.991Z,33.4
2018-06-07T04:18:51.216Z,32.9
2018-06-07T04:28:50.454Z,32.6
2018-06-07T04:38:49.695Z,32.1
2018-06-07T04:48:48.909Z,32.4
2018-06-07T04:58:48.191Z,32.6
2018-06-07T05:08:47.377Z,32.8
2018-06-07T05:18:46.600Z,32.9
2018-06-07T05:28:45.829Z,33.1
2018-06-07T05:38:45.075Z,33.4
2018-06-07T05:48:44.288Z,33.9
2018-06-07T05:58:43.529Z,34.4
2018-06-07T06:08:42.745Z,34.9
2018-06-07T06:18:42.027Z,35.6
2018-06-07T06:28:41.253Z,36.3
2018-06-07T06:38:40.483Z,37.1
2018-06-07T06:48:39.662Z,38
2018-06-07T06:58:38.888Z,38.9
2018-06-07T07:08:38.178Z,39.8
2018-06-07T07:18:37.355Z,40.7
2018-06-07T07:28:36.581Z,41.6
2018-06-07T07:38:35.815Z,42.5
2018-06-07T07:48:35.034Z,43.4
2018-06-07T07:58:34.341Z,44.3
2018-06-07T08:08:33.563Z,45
2018-06-07T08:18:32.784Z,45.7
2018-06-07T08:28:32.011Z,46.4
2018-06-07T08:38:31.243Z,47
2018-06-07T08:48:30.527Z,47.7
2018-06-07T08:58:29.729Z,48.3
2018-06-07T09:08:28.946Z,49.1
2018-06-07T09:18:28.169Z,49.8
2018-06-07T09:28:27.399Z,50.4
2018-06-07T09:38:26.630Z,51.1
2018-06-07T09:48:25.861Z,51.8
2018-06-07T09:58:25.164Z,52.6
2018-06-07T10:08:24.320Z,53.3
2018-06-07T10:18:23.609Z,54
2018-06-07T10:28:22.779Z,54.7
2018-06-07T10:38:22.006Z,55.4
2018-06-07T10:48:21.242Z,56.2
2018-06-07T10:58:20.477Z,56.9
2018-06-07T11:08:19.715Z,57.6
2018-06-07T11:18:18.931Z,58.4
2018-06-07T11:28:18.158Z,59.1
2018-06-07T11:38:17.388Z,59.8
2018-06-07T11:48:16.620Z,60.6
2018-06-07T11:58:15.862Z,61.3
2018-06-07T12:08:15.095Z,61.8
2018-06-07T12:18:14.309Z,62.1
2018-06-07T12:28:13.541Z,62.3
2018-06-07T12:38:12.769Z,62.5
2018-06-07T12:48:11.999Z,62.7
2018-06-07T12:58:11.237Z,62.8
2018-06-07T13:08:10.461Z,62.8
2018-06-07T13:18:09.691Z,62.8
2018-06-07T13:28:08.980Z,62.9
2018-06-07T13:38:08.159Z,63.1
2018-06-07T13:48:07.441Z,63.6
2018-06-07T13:58:06.611Z,63.9
2018-06-07T14:08:05.848Z,64.3
2018-06-07T14:18:05.085Z,64.4
2018-06-07T14:28:04.350Z,64.6
2018-06-07T14:38:03.545Z,64.8
2018-06-07T14:48:02.765Z,64.8
2018-06-07T14:58:01.995Z,64.9
2018-06-07T15:08:01.285Z,64.9
2018-06-07T15:18:00.468Z,64.8
2018-06-07T15:27:59.688Z,64.9
2018-06-07T15:37:58.923Z,64.7
2018-06-07T15:47:58.153Z,64.2
2018-06-07T15:57:57.384Z,58.9
2018-06-07T16:07:56.630Z,53.6
2018-06-07T16:17:55.865Z,53.4
2018-06-07T16:27:55.093Z,53.2
2018-06-07T16:37:54.321Z,49.5
2018-06-07T16:47:53.551Z,49.9
2018-06-07T16:57:52.784Z,50
2018-06-07T17:07:52.011Z,50.1
2018-06-07T17:17:51.248Z,50.2
2018-06-07T17:27:50.472Z,50.1
2018-06-07T17:37:49.713Z,50.2
2018-06-07T17:47:49.019Z,49.6
2018-06-07T17:57:48.181Z,49.6
2018-06-07T18:07:47.412Z,49.7
2018-06-07T18:17:46.695Z,49.5
2018-06-07T18:27:45.922Z,49.5
2018-06-07T18:52:35.946Z,46.3
2018-06-07T19:02:35.130Z,45.5
2018-06-07T19:12:34.417Z,45.7
2018-06-07T19:22:33.610Z,45.6
2018-06-07T19:32:32.890Z,45.5
2018-06-07T19:42:32.186Z,45.4
2018-06-07T19:52:31.391Z,45.4
2018-06-07T20:02:30.638Z,45.4
2018-06-07T20:12:29.869Z,45.4
2018-06-07T20:22:29.095Z,45.3
2018-06-07T20:32:28.327Z,45.3
2018-06-07T20:42:27.616Z,45.3
2018-06-07T20:52:26.798Z,45.3
2018-06-07T21:02:26.035Z,45.3
2018-06-07T21:12:25.276Z,45.3
2018-06-07T21:22:24.510Z,45.3
2018-06-07T21:32:23.736Z,45.2
2018-06-07T21:42:22.974Z,45.3
2018-06-07T21:52:22.201Z,45.3
2018-06-07T22:02:21.436Z,45.3
2018-06-07T22:12:20.675Z,45.2
2018-06-07T22:22:19.901Z,45.2
2018-06-07T22:32:19.131Z,45.3
2018-06-07T22:42:18.376Z,45.2
2018-06-07T22:52:17.597Z,45.2
2018-06-07T23:02:16.834Z,45.2
2018-06-07T23:12:16.061Z,45.2
2018-06-07T23:22:15.289Z,45.2
2018-06-07T23:32:14.532Z,45.2
2018-06-07T23:42:13.805Z,45.2
2018-06-07T23:52:12.982Z,45.2
